Time;durP1;ratioP1;P1;durP2;ratioP2;P2;SDS_P1;SDS_P2;PMS_P1;PMS_P2;Temp;Humidity;BMP_temperature;BMP_pressure;BME280_temperature;BME280_humidity;BME280_pressure;Samples;Min_cycle;Max_cycle;Signal;HPM_P1;HPM_P2
2023/05/20 00:02:42;;;;;;;4.43;1.70;;;;;;;18.93;34.84;102250.91;16115940;19;130126;-38
2023/05/20 00:08:08;;;;;;;3.88;1.67;;;;;;;18.90;34.83;102240.25;16110563;19;131099;-38
2023/05/20 00:13:30;;;;;;;5.47;1.88;;;;;;;18.90;34.43;102252.16;16109490;19;129406;-38
2023/05/20 00:18:51;;;;;;;3.30;1.77;;;;;;;18.89;34.42;102250.47;16107131;19;130394;-38
2023/05/20 00:24:14;;;;;;;4.38;1.88;;;;;;;18.90;34.83;102251.31;16109263;19;131372;-38
2023/05/20 00:29:36;;;;;;;6.22;1.80;;;;;;;18.90;34.63;102245.78;16107205;19;130754;-38
2023/05/20 00:34:59;;;;;;;4.10;1.70;;;;;;;18.88;34.70;102242.38;16110954;19;131167;-38
2023/05/20 00:40:22;;;;;;;3.83;1.77;;;;;;;18.87;34.76;102244.31;16114808;19;130173;-37
2023/05/20 00:45:45;;;;;;;2.85;1.60;;;;;;;18.86;34.72;102241.72;16111968;19;130830;-38
2023/05/20 00:51:07;;;;;;;3.22;1.55;;;;;;;18.85;34.78;102238.13;16114542;19;131226;-38
2023/05/20 00:56:29;;;;;;;5.38;1.90;;;;;;;18.85;34.43;102235.34;16107686;19;131539;-38
2023/05/20 01:01:51;;;;;;;4.68;1.63;;;;;;;18.84;34.75;102225.31;16105138;19;130054;-37
2023/05/20 01:07:17;;;;;;;5.35;1.85;;;;;;;18.86;34.34;102227.88;16112220;19;131337;-37
2023/05/20 01:12:45;;;;;;;3.15;1.40;;;;;;;18.84;34.44;102230.88;16109410;19;129959;-38
2023/05/20 01:18:09;;;;;;;3.45;1.45;;;;;;;18.82;34.68;102230.22;16102241;19;130806;-38
2023/05/20 01:23:41;;;;;;;3.75;1.58;;;;;;;18.83;34.62;102233.88;16109768;19;129719;-38
2023/05/20 01:29:03;;;;;;;3.25;1.50;;;;;;;18.81;34.33;102233.22;16119310;19;130297;-38
2023/05/20 01:34:25;;;;;;;2.25;1.48;;;;;;;18.80;34.68;102228.75;16124401;19;129888;-38
2023/05/20 01:39:49;;;;;;;6.70;1.52;;;;;;;18.80;34.44;102228.75;16126262;19;130530;-38
2023/05/20 01:45:11;;;;;;;3.45;1.40;;;;;;;18.78;34.55;102220.63;16117969;19;131238;-40
2023/05/20 01:50:33;;;;;;;3.13;1.60;;;;;;;18.79;34.79;102224.25;16115128;19;131283;-38
2023/05/20 01:55:55;;;;;;;3.67;1.42;;;;;;;18.77;34.41;102219.78;16122064;19;130801;-38
2023/05/20 02:01:17;;;;;;;5.20;1.52;;;;;;;18.76;34.83;102212.53;16119201;19;129828;-37
2023/05/20 02:06:39;;;;;;;2.65;1.30;;;;;;;18.76;34.65;102206.16;16122321;19;130313;-38
2023/05/20 02:12:01;;;;;;;5.32;1.95;;;;;;;18.75;34.54;102196.13;16118306;19;131594;-38
2023/05/20 02:17:23;;;;;;;2.53;1.55;;;;;;;18.74;34.90;102202.72;16113685;19;130686;-38
2023/05/20 02:22:45;;;;;;;4.82;1.50;;;;;;;18.74;34.62;102197.19;16119388;19;129311;-38
2023/05/20 02:28:09;;;;;;;5.68;1.63;;;;;;;18.74;34.61;102202.72;16122501;19;129753;-38
2023/05/20 02:33:32;;;;;;;3.70;1.80;;;;;;;18.73;34.73;102198.25;16114070;19;131138;-38
2023/05/20 02:38:55;;;;;;;3.83;1.73;;;;;;;18.71;34.59;102192.91;16113642;19;129434;-38
2023/05/20 02:44:17;;;;;;;5.38;1.85;;;;;;;18.70;34.92;102195.91;16112670;19;130541;-38
2023/05/20 02:49:39;;;;;;;4.22;1.90;;;;;;;18.69;34.74;102200.63;16115428;19;131560;-38
2023/05/20 02:55:01;;;;;;;3.78;1.50;;;;;;;18.69;35.06;102200.63;16116140;19;131098;-38
2023/05/20 03:00:23;;;;;;;5.63;1.50;;;;;;;18.69;34.97;102196.97;16123708;19;129998;-38
2023/05/20 03:05:45;;;;;;;5.03;1.95;;;;;;;18.67;35.10;102188.88;16117956;19;131057;-38
2023/05/20 03:11:07;;;;;;;2.72;1.30;;;;;;;18.66;34.71;102189.94;16115920;19;131573;-37
2023/05/20 03:16:29;;;;;;;3.03;1.50;;;;;;;18.65;34.71;102192.91;16113971;19;130702;-38
2023/05/20 03:21:51;;;;;;;2.97;1.50;;;;;;;18.65;34.81;102198.47;16114715;19;130346;-37
2023/05/20 03:27:13;;;;;;;2.67;1.40;;;;;;;18.64;35.02;102197.63;16109354;19;130723;-38
2023/05/20 03:32:35;;;;;;;3.72;1.52;;;;;;;18.64;34.88;102192.09;16114299;19;130039;-38
2023/05/20 03:37:58;;;;;;;3.17;1.58;;;;;;;18.63;35.26;102198.69;16113509;19;129327;-38
2023/05/20 03:43:20;;;;;;;4.75;1.55;;;;;;;18.62;35.24;102188.66;16113607;19;130933;-38
2023/05/20 03:48:42;;;;;;;3.65;1.63;;;;;;;18.62;35.00;102194.22;16111260;19;129620;-38
2023/05/20 03:54:04;;;;;;;11.20;2.22;;;;;;;18.62;35.02;102188.66;16116773;19;131104;-38
2023/05/20 03:59:26;;;;;;;6.28;1.63;;;;;;;18.60;35.34;102190.78;16114661;19;130941;-38
2023/05/20 04:04:51;;;;;;;3.00;1.60;;;;;;;18.61;35.20;102196.16;16114685;19;129333;-38
2023/05/20 04:10:13;;;;;;;2.80;1.40;;;;;;;18.60;34.96;102197.22;16114008;19;131868;-47
2023/05/20 04:15:35;;;;;;;5.72;1.50;;;;;;;18.61;35.36;102203.59;16111510;19;131753;-48
2023/05/20 04:21:00;;;;;;;6.13;1.90;;;;;;;18.61;34.97;102198.03;16113673;19;130033;-47
2023/05/20 04:26:22;;;;;;;4.68;2.00;;;;;;;18.60;35.13;102191.66;16110600;19;131531;-47
2023/05/20 04:31:46;;;;;;;5.00;2.10;;;;;;;18.60;35.48;102196.34;16106136;19;130507;-47
2023/05/20 04:37:09;;;;;;;6.22;1.90;;;;;;;18.58;35.21;102199.34;16113823;19;130607;-38
2023/05/20 04:42:32;;;;;;;4.63;1.52;;;;;;;18.57;35.07;102194.03;16112385;19;129611;-38
2023/05/20 04:47:54;;;;;;;3.08;1.70;;;;;;;18.56;35.12;102198.69;16109282;19;131572;-38
2023/05/20 04:53:22;;;;;;;3.38;1.52;;;;;;;18.56;35.23;102189.53;16106534;19;130574;-39
2023/05/20 04:58:44;;;;;;;3.60;1.83;;;;;;;18.54;35.13;102175.88;16106657;19;133728;-38
2023/05/20 05:04:06;;;;;;;3.00;1.33;;;;;;;18.55;35.54;102176.75;16121574;19;130404;-38
2023/05/20 05:09:28;;;;;;;6.10;1.60;;;;;;;18.55;35.10;102171.22;16117905;19;130680;-38
2023/05/20 05:14:50;;;;;;;4.00;2.00;;;;;;;18.54;35.22;102163.97;16119335;19;130154;-38
2023/05/20 05:20:12;;;;;;;6.65;2.00;;;;;;;18.53;35.52;102165.03;16121342;19;130130;-38
2023/05/20 05:25:33;;;;;;;3.72;1.60;;;;;;;18.54;35.66;102169.50;16123634;19;131051;-38
2023/05/20 05:30:56;;;;;;;4.70;1.55;;;;;;;18.54;35.43;102175.03;16124076;19;131806;-37
2023/05/20 05:36:18;;;;;;;2.88;1.42;;;;;;;18.54;35.35;102173.13;16122037;19;130137;-40
2023/05/20 05:41:40;;;;;;;3.33;1.70;;;;;;;18.54;35.37;102186.13;16121413;19;131024;-38
2023/05/20 05:47:02;;;;;;;4.15;1.80;;;;;;;18.54;35.61;102188.91;16120706;19;130044;-37
2023/05/20 05:52:24;;;;;;;5.22;1.63;;;;;;;18.53;35.75;102185.25;16123282;19;131318;-38
2023/05/20 05:57:46;;;;;;;3.35;1.80;;;;;;;18.56;35.37;102178.47;16120515;19;129830;-38
2023/05/20 06:03:08;;;;;;;3.03;1.65;;;;;;;18.58;35.56;102173.56;16118351;19;131152;-38
2023/05/20 06:08:30;;;;;;;4.15;1.90;;;;;;;18.64;35.61;102174.63;16124966;19;130926;-37
2023/05/20 06:13:52;;;;;;;7.13;1.88;;;;;;;18.76;35.47;102170.09;16118984;19;130577;-37
2023/05/20 06:19:13;;;;;;;8.73;1.67;;;;;;;;;;16112737;19;130884;-37
2023/05/20 06:24:35;;;;;;;6.13;1.88;;;;;;;19.08;35.81;102148.84;16117791;19;129743;-37
2023/05/20 06:29:57;;;;;;;5.32;1.40;;;;;;;19.23;35.86;102147.75;16118045;19;129552;-37
2023/05/20 06:35:19;;;;;;;5.35;1.60;;;;;;;19.37;35.67;102140.25;16114564;19;130049;-37
2023/05/20 06:40:41;;;;;;;4.07;1.98;;;;;;;19.48;35.59;102133.13;16121430;19;130990;-38
2023/05/20 06:46:03;;;;;;;3.80;1.67;;;;;;;19.55;35.80;102125.63;16115630;19;129767;-39
2023/05/20 06:51:27;;;;;;;10.02;1.85;;;;;;;19.66;35.60;102126.81;16119936;19;131339;-38
2023/05/20 06:56:48;;;;;;;7.25;1.98;;;;;;;19.75;35.43;102125.50;16122173;19;129864;-38
2023/05/20 07:02:10;;;;;;;7.28;1.80;;;;;;;19.82;35.82;102126.28;16114730;19;131794;-38
2023/05/20 07:07:32;;;;;;;8.00;1.83;;;;;;;19.89;35.57;102119.81;16115542;19;129339;-37
2023/05/20 07:12:54;;;;;;;7.10;1.95;;;;;;;19.95;35.47;102113.38;16120117;19;130284;-37
2023/05/20 07:18:17;;;;;;;6.20;2.25;;;;;;;20.00;35.30;102116.31;16115994;19;130057;-37
2023/05/20 07:23:39;;;;;;;4.80;1.75;;;;;;;20.04;35.17;102122.31;16112877;19;129408;-37
2023/05/20 07:29:05;;;;;;;6.28;2.03;;;;;;;20.09;35.39;102116.91;16118932;19;129879;-37
2023/05/20 07:34:27;;;;;;;6.35;1.73;;;;;;;20.10;35.42;102111.13;16115647;19;130503;-37
2023/05/20 07:39:49;;;;;;;5.35;2.05;;;;;;;20.16;35.18;102111.28;16115083;19;129555;-37
2023/05/20 07:45:10;;;;;;;4.57;2.17;;;;;;;20.18;35.15;102104.44;16117847;19;130065;-37
2023/05/20 07:50:33;;;;;;;5.35;2.22;;;;;;;20.22;34.64;102102.88;16114125;19;130065;-37
2023/05/20 07:55:55;;;;;;;6.38;2.00;;;;;;;20.24;34.99;102095.16;16109347;19;130218;-38
2023/05/20 08:01:18;;;;;;;8.57;2.30;;;;;;;20.29;34.92;102097.25;16110101;19;129700;-37
2023/05/20 08:06:40;;;;;;;5.20;2.30;;;;;;;20.31;34.88;102095.09;16104954;19;131507;-37
2023/05/20 08:12:02;;;;;;;4.05;2.33;;;;;;;20.34;35.00;102077.13;16112941;19;129952;-37
2023/05/20 08:17:24;;;;;;;4.18;2.38;;;;;;;20.35;34.75;102082.47;16106812;19;130470;-37
2023/05/20 08:22:46;;;;;;;5.82;2.05;;;;;;;20.36;34.65;102070.28;16118131;19;129062;-37
2023/05/20 08:28:08;;;;;;;8.07;2.17;;;;;;;20.38;34.77;102061.69;16112262;19;129496;-36
2023/05/20 08:33:30;;;;;;;5.15;2.00;;;;;;;20.39;34.72;102068.94;16108172;19;130317;-37
2023/05/20 08:38:51;;;;;;;5.57;2.42;;;;;;;20.38;34.29;102067.25;16111098;19;129298;-37
2023/05/20 08:44:15;;;;;;;5.38;1.92;;;;;;;20.39;34.17;102055.88;16113837;19;129540;-36
2023/05/20 08:49:40;;;;;;;6.07;2.65;;;;;;;20.42;34.47;102057.38;16110323;19;130327;-37
2023/05/20 08:55:06;;;;;;;4.68;2.03;;;;;;;20.43;34.25;102056.31;16112185;19;129402;-36
2023/05/20 09:00:28;;;;;;;4.32;1.77;;;;;;;20.44;33.99;102055.19;16107024;19;131548;-37
2023/05/20 09:05:51;;;;;;;4.95;1.98;;;;;;;20.45;33.93;102045.78;16108444;19;131421;-36
2023/05/20 09:11:13;;;;;;;7.97;1.98;;;;;;;20.47;34.24;102049.19;16106594;19;131206;-36
2023/05/20 09:16:35;;;;;;;3.22;1.75;;;;;;;20.47;33.98;102040.84;16109333;19;130212;-36
2023/05/20 09:21:57;;;;;;;7.53;2.38;;;;;;;20.45;34.27;102037.44;16107918;19;130918;-37
2023/05/20 09:27:20;;;;;;;6.15;2.00;;;;;;;20.44;34.04;102035.72;16108998;19;133592;-36
2023/05/20 09:32:42;;;;;;;2.97;1.60;;;;;;;20.43;34.17;102020.16;16108900;19;129965;-36
2023/05/20 09:38:08;;;;;;;3.40;1.70;;;;;;;20.43;34.40;102037.69;16108070;19;133898;-36
2023/05/20 09:43:30;;;;;;;3.80;1.73;;;;;;;20.41;34.07;102028.72;16100012;19;130768;-36
2023/05/20 09:48:52;;;;;;;6.82;1.77;;;;;;;20.41;33.87;102012.03;16102881;19;130580;-37
2023/05/20 09:54:18;;;;;;;4.10;1.80;;;;;;;20.40;33.96;102009.50;16122103;19;130151;-37
2023/05/20 09:59:40;;;;;;;2.67;1.63;;;;;;;20.39;34.03;101996.69;16121013;19;129894;-37
2023/05/20 10:05:06;;;;;;;9.52;1.92;;;;;;;20.39;33.86;101997.53;16119086;19;132051;-37
2023/05/20 10:10:43;;;;;;;2.20;1.42;;;;;;;20.38;34.17;102006.94;16121744;19;129776;-37
2023/05/20 10:16:23;;;;;;;4.90;1.63;;;;;;;20.37;34.07;101982.16;16118260;19;131068;-37
2023/05/20 10:21:56;;;;;;;6.57;1.70;;;;;;;20.35;34.11;101987.09;16120800;19;130455;-36
2023/05/20 10:27:18;;;;;;;3.75;1.63;;;;;;;20.33;34.20;101980.94;16124210;19;131568;-37
2023/05/20 10:32:52;;;;;;;7.35;1.83;;;;;;;20.34;34.32;101983.50;16115449;19;129343;-37
2023/05/20 10:38:14;;;;;;;8.18;1.90;;;;;;;20.34;34.70;101982.63;16118153;19;130437;-37
2023/05/20 10:43:36;;;;;;;11.10;2.13;;;;;;;20.34;34.55;101977.06;16108418;19;130388;-37
2023/05/20 10:48:58;;;;;;;7.63;1.90;;;;;;;20.35;34.60;101967.66;16122557;19;129633;-37
2023/05/20 10:54:21;;;;;;;6.75;2.35;;;;;;;20.34;34.38;101954.84;16120766;19;131593;-37
2023/05/20 10:59:43;;;;;;;7.47;1.98;;;;;;;20.32;34.45;101963.41;16121317;19;130531;-36
2023/05/20 11:05:10;;;;;;;5.80;1.80;;;;;;;20.32;34.41;101949.53;16117055;19;130130;-37
2023/05/20 11:10:35;;;;;;;6.75;1.50;;;;;;;20.32;34.51;101951.44;16117984;19;131280;-37
2023/05/20 11:15:59;;;;;;;8.73;1.80;;;;;;;20.31;34.44;101950.59;16118697;19;130440;-36
2023/05/20 11:21:22;;;;;;;3.83;1.73;;;;;;;20.31;34.31;101930.31;16114105;19;130513;-36
2023/05/20 11:26:44;;;;;;;4.20;1.60;;;;;;;20.31;34.68;101933.09;16119058;19;130029;-37
2023/05/20 11:32:06;;;;;;;5.93;1.73;;;;;;;20.31;34.33;101944.22;16119602;19;130072;-36
2023/05/20 11:37:28;;;;;;;3.63;1.65;;;;;;;20.34;34.77;101932.59;16116152;19;131317;-37
2023/05/20 11:42:55;;;;;;;2.47;1.35;;;;;;;20.37;34.39;101937.69;16120319;19;129266;-36
2023/05/20 11:48:18;;;;;;;4.25;1.58;;;;;;;20.39;34.45;101932.75;16115648;19;130447;-37
2023/05/20 11:53:40;;;;;;;4.55;1.52;;;;;;;20.41;34.44;101919.50;16116773;19;130251;-36
2023/05/20 11:59:04;;;;;;;2.75;1.65;;;;;;;20.45;34.93;101915.13;16117015;19;129512;-36
2023/05/20 12:04:26;;;;;;;4.20;1.55;;;;;;;20.45;34.58;101909.56;16116744;19;129379;-36
2023/05/20 12:09:48;;;;;;;4.25;1.30;;;;;;;20.47;34.67;101907.41;16113502;19;131729;-38
2023/05/20 12:15:10;;;;;;;2.92;1.40;;;;;;;20.50;34.80;101893.06;16116064;19;131461;-38
2023/05/20 12:20:33;;;;;;;3.67;1.70;;;;;;;20.53;34.83;101888.94;16114059;19;129528;-37
2023/05/20 12:25:55;;;;;;;2.55;1.27;;;;;;;20.55;34.80;101881.22;16115029;19;130077;-37
2023/05/20 12:31:17;;;;;;;1.58;1.30;;;;;;;20.57;34.64;101887.41;16116592;19;130278;-47
2023/05/20 12:36:39;;;;;;;4.70;1.50;;;;;;;20.58;35.03;101887.16;16113029;19;130955;-47
2023/05/20 12:42:01;;;;;;;5.35;1.55;;;;;;;20.60;35.05;101876.66;16112789;19;130708;-47
2023/05/20 12:47:23;;;;;;;3.03;1.45;;;;;;;20.58;34.71;101867.69;16114955;19;129918;-47
2023/05/20 12:52:45;;;;;;;2.47;1.30;;;;;;;20.56;35.19;101878.19;16111887;19;132250;-47
2023/05/20 12:58:10;;;;;;;4.40;1.52;;;;;;;20.54;35.28;101857.28;16114827;19;129281;-47
2023/05/20 13:03:31;;;;;;;2.75;1.45;;;;;;;20.54;35.24;101872.06;16110110;19;129801;-46
2023/05/20 13:08:53;;;;;;;5.90;1.65;;;;;;;20.53;35.28;101864.78;16115917;19;130012;-47
2023/05/20 13:14:15;;;;;;;7.13;1.55;;;;;;;20.55;34.80;101862.63;16103621;19;130161;-37
2023/05/20 13:19:39;;;;;;;7.35;1.67;;;;;;;20.56;35.00;101864.28;16109542;19;130235;-37
2023/05/20 13:25:01;;;;;;;5.72;1.60;;;;;;;20.53;35.08;101859.22;16116819;19;131258;-37
2023/05/20 13:30:22;;;;;;;5.80;1.55;;;;;;;20.50;35.48;101848.56;16127677;19;129360;-37
2023/05/20 13:35:44;;;;;;;4.45;1.60;;;;;;;20.45;35.18;101834.53;16127523;19;133500;-37
2023/05/20 13:41:06;;;;;;;7.15;1.60;;;;;;;20.42;35.34;101835.03;16129099;19;131414;-37
2023/05/20 13:46:28;;;;;;;6.03;1.70;;;;;;;20.41;35.62;101830.56;16128262;19;129578;-37
2023/05/20 13:51:50;;;;;;;9.02;1.58;;;;;;;20.38;35.41;101826.28;16124552;19;129631;-37
2023/05/20 13:57:12;;;;;;;3.90;1.60;;;;;;;20.38;35.34;101814.34;16126616;19;130455;-37
2023/05/20 14:02:34;;;;;;;3.92;1.65;;;;;;;20.36;35.62;101820.16;16126301;19;129121;-37
2023/05/20 14:07:57;;;;;;;2.78;1.30;;;;;;;20.36;35.33;101827.63;16125618;19;129478;-36
2023/05/20 14:13:21;;;;;;;1.80;1.08;;;;;;;20.33;35.36;101806.72;16123664;19;130803;-36
2023/05/20 14:18:43;;;;;;;3.50;1.23;;;;;;;20.33;35.79;101814.19;16123909;19;130027;-36
2023/05/20 14:24:05;;;;;;;4.32;1.27;;;;;;;20.32;35.51;101804.16;16123889;19;129612;-37
2023/05/20 14:29:27;;;;;;;3.38;1.30;;;;;;;20.30;35.80;101798.84;16127922;19;129135;-36
2023/05/20 14:34:50;;;;;;;5.05;1.55;;;;;;;20.31;35.46;101789.44;16124598;19;129544;-36
2023/05/20 14:40:12;;;;;;;4.07;1.30;;;;;;;20.26;35.98;101792.06;16121837;19;129019;-36
2023/05/20 14:45:34;;;;;;;1.85;1.50;;;;;;;20.26;35.84;101787.38;16122467;19;129740;-36
2023/05/20 14:50:56;;;;;;;1.83;1.50;;;;;;;20.24;35.42;101786.75;16120027;19;129709;-36
2023/05/20 14:56:18;;;;;;;3.13;1.70;;;;;;;20.23;35.66;101776.72;16122886;19;129247;-37
2023/05/20 15:01:40;;;;;;;4.95;1.48;;;;;;;20.23;35.87;101781.44;16124995;19;129536;-37
2023/05/20 15:07:01;;;;;;;3.60;1.40;;;;;;;20.24;36.01;101780.34;16121024;19;129336;-37
2023/05/20 15:12:23;;;;;;;2.17;1.20;;;;;;;20.19;35.91;101781.03;16123821;19;129585;-36
2023/05/20 15:17:45;;;;;;;1.83;1.27;;;;;;;20.19;35.72;101781.03;16120150;19;129611;-37
2023/05/20 15:23:07;;;;;;;1.85;1.40;;;;;;;20.18;35.88;101768.25;16117965;19;130087;-37
2023/05/20 15:28:29;;;;;;;2.45;1.40;;;;;;;20.17;36.08;101761.00;16119776;19;132943;-36
2023/05/20 15:33:51;;;;;;;1.77;1.30;;;;;;;20.16;35.94;101770.41;16118083;19;130524;-37
2023/05/20 15:39:13;;;;;;;2.13;1.15;;;;;;;20.17;35.95;101772.13;16120411;19;129754;-37
2023/05/20 15:44:35;;;;;;;1.48;1.10;;;;;;;20.14;36.00;101778.97;16118429;19;129596;-37
2023/05/20 15:49:57;;;;;;;3.67;1.42;;;;;;;20.16;35.81;101764.88;16117086;19;129855;-37
2023/05/20 15:55:22;;;;;;;3.30;1.30;;;;;;;20.13;35.97;101770.88;16119537;19;129357;-37
2023/05/20 16:00:44;;;;;;;2.00;1.48;;;;;;;20.13;36.27;101765.34;16117423;19;129457;-38
2023/05/20 16:06:06;;;;;;;2.55;1.45;;;;;;;20.13;36.10;101766.16;16117908;19;129930;-37
2023/05/20 16:11:30;;;;;;;2.50;1.15;;;;;;;20.10;36.15;101757.47;16119280;19;129339;-37
2023/05/20 16:16:52;;;;;;;2.80;1.30;;;;;;;20.09;35.89;101758.53;16116402;19;130440;-36
2023/05/20 16:22:15;;;;;;;2.17;1.25;;;;;;;20.10;36.20;101763.00;16113081;19;131635;-37
2023/05/20 16:27:37;;;;;;;1.23;1.08;;;;;;;20.12;36.28;101767.25;16115788;19;130839;-37
2023/05/20 16:32:58;;;;;;;2.95;1.30;;;;;;;20.10;36.13;101768.56;16116126;19;129435;-36
2023/05/20 16:38:21;;;;;;;2.28;1.42;;;;;;;20.11;35.95;101768.34;16116260;19;130868;-37
2023/05/20 16:43:43;;;;;;;2.00;1.25;;;;;;;20.10;36.21;101763.88;16116064;19;132076;-36
2023/05/20 16:49:05;;;;;;;1.55;1.00;;;;;;;20.12;36.19;101760.84;16112535;19;130298;-36
2023/05/20 16:54:27;;;;;;;1.73;1.40;;;;;;;20.11;36.32;101759.16;16112422;19;129171;-37
2023/05/20 16:59:49;;;;;;;1.45;1.13;;;;;;;20.11;36.01;101761.94;16116813;19;129992;-37
2023/05/20 17:05:10;;;;;;;3.30;1.55;;;;;;;20.10;36.11;101772.22;16114301;19;129742;-37
2023/05/20 17:10:35;;;;;;;3.95;1.55;;;;;;;20.09;36.41;101775.22;16115806;19;131331;-36
2023/05/20 17:15:57;;;;;;;1.63;1.20;;;;;;;20.11;36.17;101773.03;16110582;19;129295;-37
2023/05/20 17:21:19;;;;;;;5.10;1.20;;;;;;;20.10;36.26;101772.22;16113253;19;129359;-37
2023/05/20 17:26:41;;;;;;;1.73;1.40;;;;;;;20.13;36.42;101770.88;16112538;19;129923;-36
2023/05/20 17:32:03;;;;;;;2.08;1.30;;;;;;;20.13;36.15;101770.88;16114283;19;130273;-36
2023/05/20 17:37:25;;;;;;;1.23;0.95;;;;;;;20.12;36.45;101769.19;16112742;19;129252;-36
2023/05/20 17:42:47;;;;;;;2.15;1.20;;;;;;;20.13;36.43;101773.66;16112219;19;129393;-36
2023/05/20 17:48:09;;;;;;;1.75;1.17;;;;;;;20.14;36.00;101767.03;16114567;19;129587;-37
2023/05/20 17:53:32;;;;;;;2.40;1.30;;;;;;;20.14;36.08;101776.19;16109661;19;130174;-36
2023/05/20 17:58:54;;;;;;;3.38;1.23;;;;;;;20.14;36.36;101775.38;16111520;19;130413;-37
2023/05/20 18:04:17;;;;;;;1.50;1.20;;;;;;;20.13;36.50;101773.66;16109182;19;129519;-37
2023/05/20 18:09:39;;;;;;;1.77;1.27;;;;;;;20.10;36.43;101771.34;16119903;19;130237;-36
2023/05/20 18:15:01;;;;;;;2.83;1.40;;;;;;;20.08;36.45;101770.72;16126389;19;129305;-36
2023/05/20 18:20:23;;;;;;;2.53;1.50;;;;;;;20.06;36.35;101770.16;16127136;19;130722;-37
2023/05/20 18:25:45;;;;;;;1.48;1.10;;;;;;;20.04;36.04;101772.31;16123515;19;130370;-36
2023/05/20 18:31:07;;;;;;;1.70;1.20;;;;;;;20.02;36.51;101774.47;16124976;19;130920;-37
2023/05/20 18:36:30;;;;;;;1.80;1.00;;;;;;;19.99;36.53;101771.06;16123185;19;129822;-37
2023/05/20 18:41:52;;;;;;;1.60;1.20;;;;;;;19.98;36.57;101774.06;16103533;19;131249;-37
2023/05/20 18:47:15;;;;;;;4.55;1.10;;;;;;;19.98;36.26;101774.06;16106546;19;130273;-36
2023/05/20 18:52:37;;;;;;;4.07;1.30;;;;;;;20.03;36.30;101781.72;16115003;19;130083;-36
2023/05/20 18:57:59;;;;;;;3.03;1.20;;;;;;;20.08;36.55;101776.28;16103565;19;131092;-37
2023/05/20 19:03:25;;;;;;;2.25;1.30;;;;;;;20.12;36.37;101791.41;16113360;19;131781;-37
2023/05/20 19:08:48;;;;;;;;;;;;;;;20.12;36.86;101789.47;16117835;19;130648;-38
2023/05/20 19:14:10;;;;;;;17.70;1.65;;;;;;;20.16;36.91;101789.88;16115543;19;131103;-38
2023/05/20 19:19:32;;;;;;;9.70;1.73;;;;;;;20.16;37.25;101803.75;16117876;19;130497;-38
2023/05/20 19:24:54;;;;;;;10.50;1.90;;;;;;;20.18;37.46;101806.28;16116383;19;130278;-38
2023/05/20 19:30:16;;;;;;;13.32;1.98;;;;;;;20.18;37.60;101796.03;16107691;19;131274;-38
2023/05/20 19:35:38;;;;;;;8.93;1.77;;;;;;;20.21;37.32;101806.66;16114155;19;131645;-38
2023/05/20 19:41:00;;;;;;;6.00;1.30;;;;;;;20.23;37.27;101810.06;16118622;19;131085;-37
2023/05/20 19:46:22;;;;;;;12.93;1.63;;;;;;;20.26;37.27;101814.28;16115515;19;130346;-39
2023/05/20 19:51:44;;;;;;;7.03;1.50;;;;;;;20.30;37.46;101815.53;16114106;19;130070;-39
2023/05/20 19:57:05;;;;;;;5.20;1.67;;;;;;;20.31;37.45;101827.50;16112819;19;131383;-38
2023/05/20 20:02:27;;;;;;;6.40;1.73;;;;;;;20.27;37.19;101830.75;16112045;19;130049;-38
2023/05/20 20:07:50;;;;;;;5.78;1.63;;;;;;;20.22;37.10;101836.13;16116758;19;135629;-37
2023/05/20 20:13:12;;;;;;;4.70;1.35;;;;;;;20.18;37.17;101829.38;16114526;19;130675;-38
2023/05/20 20:18:34;;;;;;;5.05;1.60;;;;;;;20.15;37.13;101829.84;16118487;19;131179;-38
2023/05/20 20:23:55;;;;;;;6.18;1.73;;;;;;;20.11;36.88;101834.16;16115802;19;129733;-38
2023/05/20 20:29:17;;;;;;;5.57;1.45;;;;;;;20.08;36.94;101829.06;16112583;19;130867;-41
2023/05/20 20:34:40;;;;;;;3.90;1.15;;;;;;;20.05;36.90;101824.00;16114748;19;130437;-37
2023/05/20 20:40:03;;;;;;;4.90;1.30;;;;;;;20.02;36.85;101830.84;16114596;19;132006;-37
2023/05/20 20:45:25;;;;;;;3.45;1.52;;;;;;;19.98;37.09;101824.88;16112905;19;130559;-37
2023/05/20 20:50:46;;;;;;;4.75;1.48;;;;;;;19.97;37.04;101822.34;16112716;19;131672;-37
2023/05/20 20:56:08;;;;;;;4.15;1.50;;;;;;;19.95;36.94;101822.56;16114162;19;130110;-38
2023/05/20 21:01:34;;;;;;;3.35;1.23;;;;;;;19.94;37.23;101823.66;16114309;19;129677;-37
2023/05/20 21:07:00;;;;;;;4.63;1.23;;;;;;;19.93;36.98;101815.56;16110313;19;129825;-37
2023/05/20 21:12:23;;;;;;;2.90;1.40;;;;;;;19.91;36.76;101818.59;16108523;19;130144;-37
2023/05/20 21:17:44;;;;;;;6.22;1.40;;;;;;;19.89;37.17;101817.97;16113429;19;131047;-37
2023/05/20 21:23:07;;;;;;;2.67;1.15;;;;;;;19.89;37.02;101820.75;16112670;19;130181;-37
2023/05/20 21:28:29;;;;;;;2.85;1.00;;;;;;;19.86;37.02;101810.09;16107767;19;130518;-37
2023/05/20 21:33:51;;;;;;;1.83;1.15;;;;;;;19.85;37.01;101813.94;16106965;19;130263;-36
2023/05/20 21:39:13;;;;;;;2.75;1.40;;;;;;;19.83;37.08;101816.97;16098980;19;130679;-37
2023/05/20 21:44:35;;;;;;;3.17;1.15;;;;;;;19.81;36.99;101816.34;16118316;19;130960;-37
2023/05/20 21:49:57;;;;;;;4.03;1.30;;;;;;;19.80;36.88;101827.69;16123116;19;130407;-36
2023/05/20 21:55:22;;;;;;;3.05;1.27;;;;;;;19.79;36.93;101823.22;16117753;19;131142;-37
2023/05/20 22:00:44;;;;;;;3.08;1.20;;;;;;;19.77;36.85;101823.44;16121078;19;129640;-36
2023/05/20 22:06:06;;;;;;;7.32;1.40;;;;;;;19.76;36.97;101818.13;16107052;19;130826;-37
2023/05/20 22:11:28;;;;;;;3.67;1.63;;;;;;;19.75;37.18;101819.22;16123327;19;129665;-36
2023/05/20 22:16:50;;;;;;;3.20;1.30;;;;;;;19.74;36.82;101806.41;16122686;19;130409;-36
2023/05/20 22:22:12;;;;;;;5.07;1.08;;;;;;;19.71;37.12;101801.31;16123192;19;132955;-36
2023/05/20 22:27:34;;;;;;;3.30;1.27;;;;;;;19.69;37.02;101788.50;16124917;19;131007;-36
2023/05/20 22:32:58;;;;;;;1.60;1.15;;;;;;;19.68;36.81;101789.63;16122646;19;129843;-37
2023/05/20 22:38:20;;;;;;;2.45;1.27;;;;;;;19.67;37.08;101785.13;16123499;19;131898;-36
2023/05/20 22:43:42;;;;;;;2.75;1.35;;;;;;;19.67;36.94;101785.13;16122475;19;131805;-37
2023/05/20 22:49:04;;;;;;;3.40;1.30;;;;;;;19.67;37.21;101774.03;16120531;19;130398;-37
2023/05/20 22:54:26;;;;;;;4.18;1.15;;;;;;;19.67;36.80;101774.03;16124374;19;131291;-36
2023/05/20 22:59:48;;;;;;;2.53;1.00;;;;;;;19.66;36.88;101765.94;16123295;19;129693;-37
2023/05/20 23:05:11;;;;;;;3.47;1.30;;;;;;;19.64;36.95;101752.28;16122386;19;129766;-37
2023/05/20 23:10:33;;;;;;;2.38;1.25;;;;;;;19.64;36.95;101745.88;16121252;19;130978;-37
2023/05/20 23:15:54;;;;;;;1.92;0.90;;;;;;;19.63;36.98;101745.03;16119732;19;130264;-37
2023/05/20 23:21:17;;;;;;;1.88;1.00;;;;;;;19.63;36.81;101750.59;16123532;19;129342;-37
2023/05/20 23:26:39;;;;;;;2.60;1.20;;;;;;;19.61;36.69;101744.41;16117753;19;130613;-37
2023/05/20 23:32:01;;;;;;;1.40;1.20;;;;;;;19.61;37.23;101746.38;16118863;19;130479;-37
2023/05/20 23:37:23;;;;;;;2.28;1.25;;;;;;;19.60;37.06;101739.13;16120722;19;129127;-37
2023/05/20 23:42:45;;;;;;;2.00;1.20;;;;;;;19.58;36.75;101731.00;16118287;19;130997;-37
2023/05/20 23:48:11;;;;;;;2.25;1.20;;;;;;;19.57;36.93;101740.41;16118666;19;130046;-39
2023/05/20 23:53:34;;;;;;;3.60;1.33;;;;;;;19.56;36.92;101738.75;16114124;19;129391;-37
2023/05/20 23:58:56;;;;;;;4.13;1.20;;;;;;;19.56;36.91;101738.75;16114517;19;130765;-37
